sensor_id;sensor_type;location;lat;lon;timestamp;temperature;humidity
53045;DHT22;38930;52.766;6.884;2023-02-20T00:01:26;5.20;99.90
53045;DHT22;38930;52.766;6.884;2023-02-20T00:03:51;5.30;99.90
53045;DHT22;38930;52.766;6.884;2023-02-20T00:06:17;5.30;99.90
53045;DHT22;38930;52.766;6.884;2023-02-20T00:08:43;5.30;99.90
53045;DHT22;38930;52.766;6.884;2023-02-20T00:11:08;5.30;99.90
53045;DHT22;38930;52.766;6.884;2023-02-20T00:13:34;5.30;99.90
53045;DHT22;38930;52.766;6.884;2023-02-20T00:15:59;5.30;99.90
53045;DHT22;38930;52.766;6.884;2023-02-20T00:18:25;5.40;99.90
53045;DHT22;38930;52.766;6.884;2023-02-20T00:20:51;5.40;99.90
53045;DHT22;38930;52.766;6.884;2023-02-20T00:23:16;5.40;99.90
53045;DHT22;38930;52.766;6.884;2023-02-20T00:25:42;5.40;99.90
53045;DHT22;38930;52.766;6.884;2023-02-20T00:28:07;5.50;99.90
53045;DHT22;38930;52.766;6.884;2023-02-20T00:30:33;5.50;99.90
53045;DHT22;38930;52.766;6.884;2023-02-20T00:32:59;5.50;99.90
53045;DHT22;38930;52.766;6.884;2023-02-20T00:35:25;5.60;99.90
53045;DHT22;38930;52.766;6.884;2023-02-20T00:37:52;5.60;99.90
53045;DHT22;38930;52.766;6.884;2023-02-20T00:40:20;6.40;99.90
53045;DHT22;38930;52.766;6.884;2023-02-20T00:42:46;5.70;99.90
53045;DHT22;38930;52.766;6.884;2023-02-20T00:45:12;5.70;99.90
53045;DHT22;38930;52.766;6.884;2023-02-20T00:47:40;5.70;99.90
53045;DHT22;38930;52.766;6.884;2023-02-20T00:50:06;5.70;99.90
53045;DHT22;38930;52.766;6.884;2023-02-20T00:52:32;5.70;99.90
53045;DHT22;38930;52.766;6.884;2023-02-20T00:54:58;5.70;99.90
53045;DHT22;38930;52.766;6.884;2023-02-20T00:57:23;5.80;99.90
53045;DHT22;38930;52.766;6.884;2023-02-20T00:59:49;5.80;99.90
53045;DHT22;38930;52.766;6.884;2023-02-20T01:02:16;6.50;99.90
53045;DHT22;38930;52.766;6.884;2023-02-20T01:04:42;5.80;99.90
53045;DHT22;38930;52.766;6.884;2023-02-20T01:07:07;5.80;99.90
53045;DHT22;38930;52.766;6.884;2023-02-20T01:09:33;5.80;99.90
53045;DHT22;38930;52.766;6.884;2023-02-20T01:11:58;5.90;99.90
53045;DHT22;38930;52.766;6.884;2023-02-20T01:14:24;6.00;99.90
53045;DHT22;38930;52.766;6.884;2023-02-20T01:16:51;5.90;99.90
53045;DHT22;38930;52.766;6.884;2023-02-20T01:19:18;5.90;99.90
53045;DHT22;38930;52.766;6.884;2023-02-20T01:21:44;5.70;99.90
53045;DHT22;38930;52.766;6.884;2023-02-20T01:24:10;5.90;99.90
53045;DHT22;38930;52.766;6.884;2023-02-20T01:26:36;6.50;99.90
53045;DHT22;38930;52.766;6.884;2023-02-20T01:29:02;6.90;99.90
53045;DHT22;38930;52.766;6.884;2023-02-20T01:31:28;5.90;99.90
53045;DHT22;38930;52.766;6.884;2023-02-20T01:33:54;5.90;99.90
53045;DHT22;38930;52.766;6.884;2023-02-20T01:36:20;5.90;99.90
53045;DHT22;38930;52.766;6.884;2023-02-20T01:38:45;5.90;99.90
53045;DHT22;38930;52.766;6.884;2023-02-20T01:41:13;5.90;99.90
53045;DHT22;38930;52.766;6.884;2023-02-20T01:43:39;5.90;99.90
53045;DHT22;38930;52.766;6.884;2023-02-20T01:49:09;5.80;99.90
53045;DHT22;38930;52.766;6.884;2023-02-20T01:51:40;5.80;99.90
53045;DHT22;38930;52.766;6.884;2023-02-20T01:54:08;5.80;99.90
53045;DHT22;38930;52.766;6.884;2023-02-20T01:56:34;5.70;99.90
53045;DHT22;38930;52.766;6.884;2023-02-20T01:59:01;5.70;99.90
53045;DHT22;38930;52.766;6.884;2023-02-20T02:01:26;5.90;99.90
53045;DHT22;38930;52.766;6.884;2023-02-20T02:03:55;5.60;99.90
53045;DHT22;38930;52.766;6.884;2023-02-20T02:06:24;5.60;99.90
53045;DHT22;38930;52.766;6.884;2023-02-20T02:08:51;6.10;99.90
53045;DHT22;38930;52.766;6.884;2023-02-20T02:11:20;5.60;99.90
53045;DHT22;38930;52.766;6.884;2023-02-20T02:13:47;5.60;99.90
53045;DHT22;38930;52.766;6.884;2023-02-20T02:16:39;5.60;99.90
53045;DHT22;38930;52.766;6.884;2023-02-20T02:25:18;5.50;99.90
53045;DHT22;38930;52.766;6.884;2023-02-20T02:27:56;5.50;99.90
53045;DHT22;38930;52.766;6.884;2023-02-20T02:30:45;5.50;99.90
53045;DHT22;38930;52.766;6.884;2023-02-20T02:41:52;5.90;99.90
53045;DHT22;38930;52.766;6.884;2023-02-20T02:47:02;5.60;99.90
53045;DHT22;38930;52.766;6.884;2023-02-20T02:49:51;5.60;99.90
53045;DHT22;38930;52.766;6.884;2023-02-20T02:52:20;5.60;99.90
53045;DHT22;38930;52.766;6.884;2023-02-20T02:55:06;5.60;99.90
53045;DHT22;38930;52.766;6.884;2023-02-20T02:57:33;5.80;99.90
53045;DHT22;38930;52.766;6.884;2023-02-20T03:00:07;5.60;99.90
53045;DHT22;38930;52.766;6.884;2023-02-20T03:02:42;5.70;99.90
53045;DHT22;38930;52.766;6.884;2023-02-20T03:05:12;5.70;99.90
53045;DHT22;38930;52.766;6.884;2023-02-20T03:07:40;5.80;99.90
53045;DHT22;38930;52.766;6.884;2023-02-20T03:10:11;5.80;99.90
53045;DHT22;38930;52.766;6.884;2023-02-20T03:12:42;5.80;99.90
53045;DHT22;38930;52.766;6.884;2023-02-20T03:20:42;5.80;99.90
53045;DHT22;38930;52.766;6.884;2023-02-20T03:23:21;5.80;99.90
53045;DHT22;38930;52.766;6.884;2023-02-20T03:28:21;5.80;99.90
53045;DHT22;38930;52.766;6.884;2023-02-20T03:31:12;5.80;99.90
53045;DHT22;38930;52.766;6.884;2023-02-20T03:33:56;5.80;99.90
53045;DHT22;38930;52.766;6.884;2023-02-20T03:37:05;5.80;99.90
53045;DHT22;38930;52.766;6.884;2023-02-20T03:39:54;5.80;99.90
53045;DHT22;38930;52.766;6.884;2023-02-20T03:42:43;6.50;99.90
53045;DHT22;38930;52.766;6.884;2023-02-20T03:45:30;5.80;99.90
53045;DHT22;38930;52.766;6.884;2023-02-20T03:48:00;5.80;99.90
53045;DHT22;38930;52.766;6.884;2023-02-20T03:50:26;5.80;99.90
53045;DHT22;38930;52.766;6.884;2023-02-20T03:52:53;6.70;99.90
53045;DHT22;38930;52.766;6.884;2023-02-20T03:55:19;5.80;99.90
53045;DHT22;38930;52.766;6.884;2023-02-20T03:57:49;5.80;99.90
53045;DHT22;38930;52.766;6.884;2023-02-20T04:00:24;5.90;99.90
53045;DHT22;38930;52.766;6.884;2023-02-20T04:02:53;5.80;99.90
53045;DHT22;38930;52.766;6.884;2023-02-20T04:05:24;5.70;99.90
53045;DHT22;38930;52.766;6.884;2023-02-20T04:07:55;5.70;99.90
53045;DHT22;38930;52.766;6.884;2023-02-20T04:10:25;5.70;99.90
53045;DHT22;38930;52.766;6.884;2023-02-20T04:12:52;5.70;99.90
53045;DHT22;38930;52.766;6.884;2023-02-20T04:15:20;5.70;99.90
53045;DHT22;38930;52.766;6.884;2023-02-20T04:17:51;5.70;99.90
53045;DHT22;38930;52.766;6.884;2023-02-20T04:20:19;6.50;99.90
53045;DHT22;38930;52.766;6.884;2023-02-20T04:22:47;5.80;99.90
53045;DHT22;38930;52.766;6.884;2023-02-20T04:25:39;6.70;99.90
53045;DHT22;38930;52.766;6.884;2023-02-20T04:28:07;5.80;99.90
53045;DHT22;38930;52.766;6.884;2023-02-20T04:30:33;5.80;99.90
53045;DHT22;38930;52.766;6.884;2023-02-20T04:32:59;5.90;99.90
53045;DHT22;38930;52.766;6.884;2023-02-20T04:35:24;5.90;99.90
53045;DHT22;38930;52.766;6.884;2023-02-20T04:37:50;5.90;99.90
53045;DHT22;38930;52.766;6.884;2023-02-20T04:40:18;6.00;99.90
53045;DHT22;38930;52.766;6.884;2023-02-20T04:42:44;6.00;99.90
53045;DHT22;38930;52.766;6.884;2023-02-20T04:45:09;6.00;99.90
53045;DHT22;38930;52.766;6.884;2023-02-20T04:47:35;6.10;99.90
53045;DHT22;38930;52.766;6.884;2023-02-20T04:50:01;6.10;99.90
53045;DHT22;38930;52.766;6.884;2023-02-20T04:52:26;6.10;99.90
53045;DHT22;38930;52.766;6.884;2023-02-20T04:54:52;6.10;99.90
53045;DHT22;38930;52.766;6.884;2023-02-20T04:57:18;6.10;99.90
53045;DHT22;38930;52.766;6.884;2023-02-20T04:59:44;6.50;99.90
53045;DHT22;38930;52.766;6.884;2023-02-20T05:02:10;6.20;99.90
53045;DHT22;38930;52.766;6.884;2023-02-20T05:04:35;6.20;99.90
53045;DHT22;38930;52.766;6.884;2023-02-20T05:07:01;6.20;99.90
53045;DHT22;38930;52.766;6.884;2023-02-20T05:09:27;6.20;99.90
53045;DHT22;38930;52.766;6.884;2023-02-20T05:11:53;6.80;99.90
53045;DHT22;38930;52.766;6.884;2023-02-20T05:14:20;6.30;99.90
53045;DHT22;38930;52.766;6.884;2023-02-20T05:16:47;6.70;99.90
53045;DHT22;38930;52.766;6.884;2023-02-20T05:19:13;6.30;99.90
53045;DHT22;38930;52.766;6.884;2023-02-20T05:21:43;6.30;99.90
53045;DHT22;38930;52.766;6.884;2023-02-20T05:24:27;6.30;99.90
53045;DHT22;38930;52.766;6.884;2023-02-20T05:26:53;6.40;99.90
53045;DHT22;38930;52.766;6.884;2023-02-20T05:29:19;6.50;99.90
53045;DHT22;38930;52.766;6.884;2023-02-20T05:31:45;6.40;99.90
53045;DHT22;38930;52.766;6.884;2023-02-20T05:34:11;6.50;99.90
53045;DHT22;38930;52.766;6.884;2023-02-20T05:36:36;6.50;99.90
53045;DHT22;38930;52.766;6.884;2023-02-20T05:39:03;6.60;99.90
53045;DHT22;38930;52.766;6.884;2023-02-20T05:41:29;6.60;99.90
53045;DHT22;38930;52.766;6.884;2023-02-20T05:43:55;6.60;99.90
53045;DHT22;38930;52.766;6.884;2023-02-20T05:46:24;7.00;99.90
53045;DHT22;38930;52.766;6.884;2023-02-20T05:48:50;6.60;99.90
53045;DHT22;38930;52.766;6.884;2023-02-20T05:51:27;6.80;99.90
53045;DHT22;38930;52.766;6.884;2023-02-20T05:53:53;7.60;99.90
53045;DHT22;38930;52.766;6.884;2023-02-20T05:56:19;7.20;99.90
53045;DHT22;38930;52.766;6.884;2023-02-20T05:58:46;6.60;99.90
53045;DHT22;38930;52.766;6.884;2023-02-20T06:01:23;6.60;99.90
53045;DHT22;38930;52.766;6.884;2023-02-20T06:03:49;6.60;99.90
53045;DHT22;38930;52.766;6.884;2023-02-20T06:06:16;7.30;99.90
53045;DHT22;38930;52.766;6.884;2023-02-20T06:08:42;6.70;99.90
53045;DHT22;38930;52.766;6.884;2023-02-20T06:11:09;6.70;99.90
53045;DHT22;38930;52.766;6.884;2023-02-20T06:13:35;6.70;99.90
53045;DHT22;38930;52.766;6.884;2023-02-20T06:16:01;6.70;99.90
53045;DHT22;38930;52.766;6.884;2023-02-20T06:18:26;7.50;99.90
53045;DHT22;38930;52.766;6.884;2023-02-20T06:20:52;7.60;99.90
53045;DHT22;38930;52.766;6.884;2023-02-20T06:23:17;6.80;99.90
53045;DHT22;38930;52.766;6.884;2023-02-20T06:25:43;6.80;99.90
53045;DHT22;38930;52.766;6.884;2023-02-20T06:28:09;6.80;99.90
53045;DHT22;38930;52.766;6.884;2023-02-20T06:30:34;6.90;99.90
53045;DHT22;38930;52.766;6.884;2023-02-20T06:33:00;6.90;99.90
53045;DHT22;38930;52.766;6.884;2023-02-20T06:35:25;6.90;99.90
53045;DHT22;38930;52.766;6.884;2023-02-20T06:37:51;7.40;99.90
53045;DHT22;38930;52.766;6.884;2023-02-20T06:40:17;7.00;99.90
53045;DHT22;38930;52.766;6.884;2023-02-20T06:42:42;7.60;99.90
53045;DHT22;38930;52.766;6.884;2023-02-20T06:45:08;7.00;99.90
53045;DHT22;38930;52.766;6.884;2023-02-20T06:47:35;7.00;99.90
53045;DHT22;38930;52.766;6.884;2023-02-20T06:50:01;7.10;99.90
53045;DHT22;38930;52.766;6.884;2023-02-20T06:52:27;8.00;99.90
53045;DHT22;38930;52.766;6.884;2023-02-20T06:54:53;7.90;99.90
53045;DHT22;38930;52.766;6.884;2023-02-20T06:57:19;7.20;99.90
53045;DHT22;38930;52.766;6.884;2023-02-20T06:59:45;7.40;99.90
53045;DHT22;38930;52.766;6.884;2023-02-20T07:02:13;7.20;99.90
53045;DHT22;38930;52.766;6.884;2023-02-20T07:04:39;7.30;99.90
53045;DHT22;38930;52.766;6.884;2023-02-20T07:07:05;7.30;99.90
53045;DHT22;38930;52.766;6.884;2023-02-20T07:09:31;7.30;99.90
53045;DHT22;38930;52.766;6.884;2023-02-20T07:11:58;7.40;99.90
53045;DHT22;38930;52.766;6.884;2023-02-20T07:14:23;7.70;99.90
53045;DHT22;38930;52.766;6.884;2023-02-20T07:16:49;7.50;99.90
53045;DHT22;38930;52.766;6.884;2023-02-20T07:19:15;8.20;99.90
53045;DHT22;38930;52.766;6.884;2023-02-20T07:21:41;8.20;99.90
53045;DHT22;38930;52.766;6.884;2023-02-20T07:24:06;7.50;99.90
53045;DHT22;38930;52.766;6.884;2023-02-20T07:26:32;7.50;99.90
53045;DHT22;38930;52.766;6.884;2023-02-20T07:28:59;7.50;99.90
53045;DHT22;38930;52.766;6.884;2023-02-20T07:31:26;7.60;99.90
53045;DHT22;38930;52.766;6.884;2023-02-20T07:33:52;7.60;99.90
53045;DHT22;38930;52.766;6.884;2023-02-20T07:36:18;7.60;99.90
53045;DHT22;38930;52.766;6.884;2023-02-20T07:38:52;7.90;99.90
53045;DHT22;38930;52.766;6.884;2023-02-20T07:41:18;7.60;99.90
53045;DHT22;38930;52.766;6.884;2023-02-20T07:43:44;7.70;99.90
53045;DHT22;38930;52.766;6.884;2023-02-20T07:46:10;7.60;99.90
53045;DHT22;38930;52.766;6.884;2023-02-20T07:48:35;8.50;99.90
53045;DHT22;38930;52.766;6.884;2023-02-20T07:51:01;7.70;99.90
53045;DHT22;38930;52.766;6.884;2023-02-20T07:53:27;7.70;99.90
53045;DHT22;38930;52.766;6.884;2023-02-20T07:55:53;7.70;99.90
53045;DHT22;38930;52.766;6.884;2023-02-20T07:58:18;7.70;99.90
53045;DHT22;38930;52.766;6.884;2023-02-20T08:00:44;7.80;99.90
53045;DHT22;38930;52.766;6.884;2023-02-20T08:03:10;8.10;99.90
53045;DHT22;38930;52.766;6.884;2023-02-20T08:05:35;7.80;99.90
53045;DHT22;38930;52.766;6.884;2023-02-20T08:08:01;7.80;99.90
53045;DHT22;38930;52.766;6.884;2023-02-20T08:10:27;8.70;99.90
53045;DHT22;38930;52.766;6.884;2023-02-20T08:12:54;7.90;99.90
53045;DHT22;38930;52.766;6.884;2023-02-20T08:15:21;7.90;99.90
53045;DHT22;38930;52.766;6.884;2023-02-20T08:17:47;7.90;99.90
53045;DHT22;38930;52.766;6.884;2023-02-20T08:20:17;8.00;99.90
53045;DHT22;38930;52.766;6.884;2023-02-20T08:22:44;7.90;99.90
53045;DHT22;38930;52.766;6.884;2023-02-20T08:25:10;8.60;99.90
53045;DHT22;38930;52.766;6.884;2023-02-20T08:27:36;7.90;99.90
53045;DHT22;38930;52.766;6.884;2023-02-20T08:30:04;8.00;99.90
53045;DHT22;38930;52.766;6.884;2023-02-20T08:32:30;8.00;99.90
53045;DHT22;38930;52.766;6.884;2023-02-20T08:34:56;8.00;99.90
53045;DHT22;38930;52.766;6.884;2023-02-20T08:37:21;8.00;99.90
53045;DHT22;38930;52.766;6.884;2023-02-20T08:39:47;8.40;99.90
53045;DHT22;38930;52.766;6.884;2023-02-20T08:42:16;8.00;99.90
53045;DHT22;38930;52.766;6.884;2023-02-20T08:44:41;8.00;99.90
53045;DHT22;38930;52.766;6.884;2023-02-20T08:47:07;8.00;99.90
53045;DHT22;38930;52.766;6.884;2023-02-20T08:49:33;8.80;99.90
53045;DHT22;38930;52.766;6.884;2023-02-20T08:51:58;8.00;99.90
53045;DHT22;38930;52.766;6.884;2023-02-20T08:54:24;8.40;99.90
53045;DHT22;38930;52.766;6.884;2023-02-20T08:56:50;8.10;99.90
53045;DHT22;38930;52.766;6.884;2023-02-20T08:59:15;8.10;99.90
53045;DHT22;38930;52.766;6.884;2023-02-20T09:01:42;8.10;99.90
53045;DHT22;38930;52.766;6.884;2023-02-20T09:04:08;8.10;99.90
53045;DHT22;38930;52.766;6.884;2023-02-20T09:06:34;8.10;99.90
53045;DHT22;38930;52.766;6.884;2023-02-20T09:09:00;8.30;99.90
53045;DHT22;38930;52.766;6.884;2023-02-20T09:11:27;8.30;99.90
53045;DHT22;38930;52.766;6.884;2023-02-20T09:13:52;8.20;99.90
53045;DHT22;38930;52.766;6.884;2023-02-20T09:16:20;8.20;99.90
53045;DHT22;38930;52.766;6.884;2023-02-20T09:18:46;8.20;99.90
53045;DHT22;38930;52.766;6.884;2023-02-20T09:21:16;8.20;99.90
53045;DHT22;38930;52.766;6.884;2023-02-20T09:23:41;8.20;99.90
53045;DHT22;38930;52.766;6.884;2023-02-20T09:26:07;8.20;99.90
53045;DHT22;38930;52.766;6.884;2023-02-20T09:28:33;8.40;99.90
53045;DHT22;38930;52.766;6.884;2023-02-20T09:30:58;8.30;99.90
53045;DHT22;38930;52.766;6.884;2023-02-20T09:33:25;8.30;99.90
53045;DHT22;38930;52.766;6.884;2023-02-20T09:35:51;8.30;99.90
53045;DHT22;38930;52.766;6.884;2023-02-20T09:38:20;8.30;99.90
53045;DHT22;38930;52.766;6.884;2023-02-20T09:40:48;8.30;99.90
53045;DHT22;38930;52.766;6.884;2023-02-20T09:46:11;8.40;99.90
53045;DHT22;38930;52.766;6.884;2023-02-20T09:51:34;8.40;99.90
53045;DHT22;38930;52.766;6.884;2023-02-20T09:56:48;8.40;99.90
53045;DHT22;38930;52.766;6.884;2023-02-20T09:59:18;8.50;99.90
53045;DHT22;38930;52.766;6.884;2023-02-20T10:04:38;8.50;99.90
53045;DHT22;38930;52.766;6.884;2023-02-20T10:07:16;8.60;99.90
53045;DHT22;38930;52.766;6.884;2023-02-20T10:09:45;8.60;99.90
53045;DHT22;38930;52.766;6.884;2023-02-20T10:15:15;8.60;99.90
53045;DHT22;38930;52.766;6.884;2023-02-20T10:18:15;8.60;99.90
53045;DHT22;38930;52.766;6.884;2023-02-20T10:20:57;8.60;99.90
53045;DHT22;38930;52.766;6.884;2023-02-20T10:23:48;8.60;99.90
53045;DHT22;38930;52.766;6.884;2023-02-20T10:26:28;8.60;99.90
53045;DHT22;38930;52.766;6.884;2023-02-20T10:29:03;8.70;99.90
53045;DHT22;38930;52.766;6.884;2023-02-20T10:31:47;9.20;99.90
53045;DHT22;38930;52.766;6.884;2023-02-20T10:34:27;8.70;99.90
53045;DHT22;38930;52.766;6.884;2023-02-20T10:37:06;9.60;99.90
53045;DHT22;38930;52.766;6.884;2023-02-20T10:39:34;8.70;99.90
53045;DHT22;38930;52.766;6.884;2023-02-20T10:42:02;8.70;99.90
53045;DHT22;38930;52.766;6.884;2023-02-20T10:47:27;8.70;99.90
53045;DHT22;38930;52.766;6.884;2023-02-20T10:52:58;8.70;99.90
53045;DHT22;38930;52.766;6.884;2023-02-20T10:55:32;8.70;99.90
53045;DHT22;38930;52.766;6.884;2023-02-20T10:58:11;8.80;99.90
53045;DHT22;38930;52.766;6.884;2023-02-20T11:00:47;8.70;99.90
53045;DHT22;38930;52.766;6.884;2023-02-20T11:03:19;8.80;99.90
53045;DHT22;38930;52.766;6.884;2023-02-20T11:05:53;8.80;99.90
53045;DHT22;38930;52.766;6.884;2023-02-20T11:08:20;8.80;99.90
53045;DHT22;38930;52.766;6.884;2023-02-20T11:10:53;8.80;99.90
53045;DHT22;38930;52.766;6.884;2023-02-20T11:13:22;9.00;99.90
53045;DHT22;38930;52.766;6.884;2023-02-20T11:15:52;8.80;99.90
53045;DHT22;38930;52.766;6.884;2023-02-20T11:18:31;8.80;99.90
53045;DHT22;38930;52.766;6.884;2023-02-20T11:20:59;8.80;99.90
53045;DHT22;38930;52.766;6.884;2023-02-20T11:23:43;8.90;99.90
53045;DHT22;38930;52.766;6.884;2023-02-20T11:26:30;8.90;99.90
53045;DHT22;38930;52.766;6.884;2023-02-20T11:29:12;9.50;99.90
53045;DHT22;38930;52.766;6.884;2023-02-20T11:31:42;8.90;99.90
53045;DHT22;38930;52.766;6.884;2023-02-20T11:34:21;9.00;99.90
53045;DHT22;38930;52.766;6.884;2023-02-20T11:36:51;8.90;99.90
53045;DHT22;38930;52.766;6.884;2023-02-20T11:39:24;9.00;99.90
53045;DHT22;38930;52.766;6.884;2023-02-20T11:42:05;9.10;99.90
53045;DHT22;38930;52.766;6.884;2023-02-20T11:44:31;9.00;99.90
53045;DHT22;38930;52.766;6.884;2023-02-20T11:47:23;9.30;99.90
53045;DHT22;38930;52.766;6.884;2023-02-20T11:52:36;9.00;99.90
53045;DHT22;38930;52.766;6.884;2023-02-20T11:55:23;9.00;99.90
53045;DHT22;38930;52.766;6.884;2023-02-20T11:57:49;9.10;99.90
53045;DHT22;38930;52.766;6.884;2023-02-20T12:00:27;9.80;99.90
53045;DHT22;38930;52.766;6.884;2023-02-20T12:03:10;9.10;99.90
53045;DHT22;38930;52.766;6.884;2023-02-20T12:08:17;9.10;99.90
53045;DHT22;38930;52.766;6.884;2023-02-20T12:10:45;9.30;99.90
53045;DHT22;38930;52.766;6.884;2023-02-20T12:13:15;9.20;99.90
53045;DHT22;38930;52.766;6.884;2023-02-20T12:15:45;9.50;99.90
53045;DHT22;38930;52.766;6.884;2023-02-20T12:21:13;9.20;99.90
53045;DHT22;38930;52.766;6.884;2023-02-20T12:29:21;9.30;99.90
53045;DHT22;38930;52.766;6.884;2023-02-20T12:46:43;9.40;99.90
53045;DHT22;38930;52.766;6.884;2023-02-20T12:52:12;9.40;99.90
53045;DHT22;38930;52.766;6.884;2023-02-20T12:57:48;9.40;99.90
53045;DHT22;38930;52.766;6.884;2023-02-20T13:00:33;9.40;99.90
53045;DHT22;38930;52.766;6.884;2023-02-20T13:03:14;9.40;99.90
53045;DHT22;38930;52.766;6.884;2023-02-20T13:05:42;9.40;99.90
53045;DHT22;38930;52.766;6.884;2023-02-20T13:08:13;9.40;99.90
53045;DHT22;38930;52.766;6.884;2023-02-20T13:10:47;9.40;99.90
53045;DHT22;38930;52.766;6.884;2023-02-20T13:13:15;9.40;99.90
53045;DHT22;38930;52.766;6.884;2023-02-20T13:15:49;10.40;99.90
53045;DHT22;38930;52.766;6.884;2023-02-20T13:18:31;9.40;99.90
53045;DHT22;38930;52.766;6.884;2023-02-20T13:21:10;9.40;99.90
53045;DHT22;38930;52.766;6.884;2023-02-20T13:23:37;9.40;99.90
53045;DHT22;38930;52.766;6.884;2023-02-20T13:29:15;9.40;99.90
53045;DHT22;38930;52.766;6.884;2023-02-20T13:31:58;9.40;99.90
53045;DHT22;38930;52.766;6.884;2023-02-20T13:34:36;9.40;99.90
53045;DHT22;38930;52.766;6.884;2023-02-20T13:37:03;9.40;99.90
53045;DHT22;38930;52.766;6.884;2023-02-20T13:39:38;9.40;99.90
53045;DHT22;38930;52.766;6.884;2023-02-20T13:42:31;9.40;99.90
53045;DHT22;38930;52.766;6.884;2023-02-20T13:44:57;9.40;99.90
53045;DHT22;38930;52.766;6.884;2023-02-20T13:47:33;10.20;99.90
53045;DHT22;38930;52.766;6.884;2023-02-20T13:50:02;9.40;99.90
53045;DHT22;38930;52.766;6.884;2023-02-20T13:52:41;9.40;99.90
53045;DHT22;38930;52.766;6.884;2023-02-20T13:57:47;9.50;99.90
53045;DHT22;38930;52.766;6.884;2023-02-20T14:00:16;9.50;99.90
53045;DHT22;38930;52.766;6.884;2023-02-20T14:02:44;9.50;99.90
53045;DHT22;38930;52.766;6.884;2023-02-20T14:07:45;9.50;99.90
53045;DHT22;38930;52.766;6.884;2023-02-20T14:12:44;9.50;99.90
53045;DHT22;38930;52.766;6.884;2023-02-20T14:15:11;9.80;99.90
53045;DHT22;38930;52.766;6.884;2023-02-20T14:17:37;9.50;99.90
53045;DHT22;38930;52.766;6.884;2023-02-20T14:20:13;9.50;99.90
53045;DHT22;38930;52.766;6.884;2023-02-20T14:22:40;9.50;99.90
53045;DHT22;38930;52.766;6.884;2023-02-20T14:25:44;9.50;99.90
53045;DHT22;38930;52.766;6.884;2023-02-20T14:28:14;9.50;99.90
53045;DHT22;38930;52.766;6.884;2023-02-20T14:30:40;9.50;99.90
53045;DHT22;38930;52.766;6.884;2023-02-20T14:33:20;9.50;99.90
53045;DHT22;38930;52.766;6.884;2023-02-20T14:38:46;9.50;99.90
53045;DHT22;38930;52.766;6.884;2023-02-20T14:41:18;9.80;99.90
53045;DHT22;38930;52.766;6.884;2023-02-20T14:43:59;9.50;99.90
53045;DHT22;38930;52.766;6.884;2023-02-20T14:46:28;9.60;99.90
53045;DHT22;38930;52.766;6.884;2023-02-20T14:49:10;9.50;99.90
53045;DHT22;38930;52.766;6.884;2023-02-20T14:51:36;9.60;99.90
53045;DHT22;38930;52.766;6.884;2023-02-20T14:54:19;9.50;99.90
53045;DHT22;38930;52.766;6.884;2023-02-20T14:56:45;9.60;99.90
53045;DHT22;38930;52.766;6.884;2023-02-20T14:59:32;10.10;99.90
53045;DHT22;38930;52.766;6.884;2023-02-20T15:02:19;9.60;99.90
53045;DHT22;38930;52.766;6.884;2023-02-20T15:05:09;9.60;99.90
53045;DHT22;38930;52.766;6.884;2023-02-20T15:07:38;9.50;99.90
53045;DHT22;38930;52.766;6.884;2023-02-20T15:10:26;9.60;99.90
53045;DHT22;38930;52.766;6.884;2023-02-20T15:12:58;10.50;99.90
53045;DHT22;38930;52.766;6.884;2023-02-20T15:15:25;9.50;99.90
53045;DHT22;38930;52.766;6.884;2023-02-20T15:18:11;9.50;99.90
53045;DHT22;38930;52.766;6.884;2023-02-20T15:20:43;9.60;99.90
53045;DHT22;38930;52.766;6.884;2023-02-20T15:25:38;9.50;99.90
53045;DHT22;38930;52.766;6.884;2023-02-20T15:34:05;9.80;99.90
53045;DHT22;38930;52.766;6.884;2023-02-20T15:36:27;9.60;99.90
53045;DHT22;38930;52.766;6.884;2023-02-20T15:38:54;9.50;99.90
53045;DHT22;38930;52.766;6.884;2023-02-20T15:41:20;9.80;99.90
53045;DHT22;38930;52.766;6.884;2023-02-20T15:43:49;9.60;99.90
53045;DHT22;38930;52.766;6.884;2023-02-20T15:46:16;9.60;99.90
53045;DHT22;38930;52.766;6.884;2023-02-20T15:48:42;9.90;99.90
53045;DHT22;38930;52.766;6.884;2023-02-20T15:51:09;9.70;99.90
53045;DHT22;38930;52.766;6.884;2023-02-20T15:53:35;9.60;99.90
53045;DHT22;38930;52.766;6.884;2023-02-20T15:56:01;9.60;99.90
53045;DHT22;38930;52.766;6.884;2023-02-20T16:00:55;9.60;99.90
53045;DHT22;38930;52.766;6.884;2023-02-20T16:03:23;9.60;99.90
53045;DHT22;38930;52.766;6.884;2023-02-20T16:05:48;9.60;99.90
53045;DHT22;38930;52.766;6.884;2023-02-20T16:08:14;9.70;99.90
53045;DHT22;38930;52.766;6.884;2023-02-20T16:10:40;9.60;99.90
53045;DHT22;38930;52.766;6.884;2023-02-20T16:13:27;9.90;99.90
53045;DHT22;38930;52.766;6.884;2023-02-20T16:15:53;9.60;99.90
53045;DHT22;38930;52.766;6.884;2023-02-20T16:18:19;9.60;99.90
53045;DHT22;38930;52.766;6.884;2023-02-20T16:20:45;9.60;99.90
53045;DHT22;38930;52.766;6.884;2023-02-20T16:23:11;9.60;99.90
53045;DHT22;38930;52.766;6.884;2023-02-20T16:25:36;9.60;99.90
53045;DHT22;38930;52.766;6.884;2023-02-20T16:28:03;9.50;99.90
53045;DHT22;38930;52.766;6.884;2023-02-20T16:30:32;9.50;99.90
53045;DHT22;38930;52.766;6.884;2023-02-20T16:33:01;9.50;99.90
53045;DHT22;38930;52.766;6.884;2023-02-20T16:35:27;9.40;99.90
53045;DHT22;38930;52.766;6.884;2023-02-20T16:37:53;9.40;99.90
53045;DHT22;38930;52.766;6.884;2023-02-20T16:40:22;9.40;99.90
53045;DHT22;38930;52.766;6.884;2023-02-20T16:42:48;9.40;99.90
53045;DHT22;38930;52.766;6.884;2023-02-20T16:45:16;9.40;99.90
53045;DHT22;38930;52.766;6.884;2023-02-20T16:47:42;9.40;99.90
53045;DHT22;38930;52.766;6.884;2023-02-20T16:50:14;9.30;99.90
53045;DHT22;38930;52.766;6.884;2023-02-20T16:52:41;9.30;99.90
53045;DHT22;38930;52.766;6.884;2023-02-20T16:55:28;9.50;99.90
53045;DHT22;38930;52.766;6.884;2023-02-20T16:57:55;9.30;99.90
53045;DHT22;38930;52.766;6.884;2023-02-20T17:00:26;9.30;99.90
53045;DHT22;38930;52.766;6.884;2023-02-20T17:02:53;9.20;99.90
53045;DHT22;38930;52.766;6.884;2023-02-20T17:05:22;9.30;99.90
53045;DHT22;38930;52.766;6.884;2023-02-20T17:07:47;9.20;99.90
53045;DHT22;38930;52.766;6.884;2023-02-20T17:10:14;9.30;99.90
53045;DHT22;38930;52.766;6.884;2023-02-20T17:12:39;9.20;99.90
53045;DHT22;38930;52.766;6.884;2023-02-20T17:15:06;9.40;99.90
53045;DHT22;38930;52.766;6.884;2023-02-20T17:17:32;9.20;99.90
53045;DHT22;38930;52.766;6.884;2023-02-20T17:19:59;9.20;99.90
53045;DHT22;38930;52.766;6.884;2023-02-20T17:22:25;9.20;99.90
53045;DHT22;38930;52.766;6.884;2023-02-20T17:24:52;9.50;99.90
53045;DHT22;38930;52.766;6.884;2023-02-20T17:27:18;9.10;99.90
53045;DHT22;38930;52.766;6.884;2023-02-20T17:29:45;9.10;99.90
53045;DHT22;38930;52.766;6.884;2023-02-20T17:32:11;9.90;99.90
53045;DHT22;38930;52.766;6.884;2023-02-20T17:34:37;9.10;99.90
53045;DHT22;38930;52.766;6.884;2023-02-20T17:37:06;9.10;99.90
53045;DHT22;38930;52.766;6.884;2023-02-20T17:39:32;9.10;99.90
53045;DHT22;38930;52.766;6.884;2023-02-20T17:41:58;9.10;99.90
53045;DHT22;38930;52.766;6.884;2023-02-20T17:44:27;9.60;99.90
53045;DHT22;38930;52.766;6.884;2023-02-20T17:46:55;9.10;99.90
53045;DHT22;38930;52.766;6.884;2023-02-20T17:49:21;9.30;99.90